Time;durP1;ratioP1;P1;durP2;ratioP2;P2;SDS_P1;SDS_P2;PMS_P1;PMS_P2;Temp;Humidity;BMP_temperature;BMP_pressure;BME280_temperature;BME280_humidity;BME280_pressure;Samples;Min_cycle;Max_cycle;Signal;HPM_P1;HPM_P2
2022/10/25 00:01:03;;;;;;;;;;;;;;;-142.75;100.00;76615.56;5092361;28;19916;-67
2022/10/25 00:03:28;;;;;;;;;;;;;;;-142.75;100.00;76613.59;5092401;28;19923;-67
2022/10/25 00:05:53;;;;;;;;;;;;;;;-142.75;100.00;76617.53;5090850;28;19916;-67
2022/10/25 00:08:19;;;;;;;;;;;;;;;-142.75;100.00;76631.31;5090737;28;19930;-69
2022/10/25 00:10:44;;;;;;;;;;;;;;;-142.75;100.00;76623.44;5092074;28;20619;-65
2022/10/25 00:13:09;;;;;;;;;;;;;;;-142.75;100.00;76633.28;5092128;28;19923;-68
2022/10/25 00:15:34;;;;;;;;;;;;;;;-142.75;100.00;76637.22;5091914;28;19920;-67
2022/10/25 00:17:59;;;;;;;;;;;;;;;-142.75;100.00;76639.19;5089639;28;19916;-68
2022/10/25 00:20:25;;;;;;;;;;;;;;;-142.75;100.00;76649.03;5071951;28;19916;-67
2022/10/25 00:22:50;;;;;;;;;;;;;;;-142.75;100.00;76651.00;5090933;28;19916;-68
2022/10/25 00:25:15;;;;;;;;;;;;;;;-142.75;100.00;76652.97;5092032;28;19917;-67
2022/10/25 00:27:40;;;;;;;;;;;;;;;-142.75;100.00;76660.84;5091418;28;20491;-66
2022/10/25 00:30:06;;;;;;;;;;;;;;;-142.75;100.00;76664.78;5091825;28;19920;-67
2022/10/25 00:32:32;;;;;;;;;;;;;;;-142.75;100.00;76660.84;5091771;28;19969;-67
2022/10/25 00:34:57;;;;;;;;;;;;;;;-142.75;100.00;76668.72;5091478;28;19916;-67
2022/10/25 00:37:22;;;;;;;;;;;;;;;-142.75;100.00;76664.78;5085029;28;19921;-67
2022/10/25 00:39:48;;;;;;;;;;;;;;;-142.75;100.00;76670.69;5071914;28;19977;-66
2022/10/25 00:42:17;;;;;;;;;;;;;;;-142.75;100.00;76656.91;5088815;28;20377;-67
2022/10/25 00:44:49;;;;;;;;;;;;;;;-142.75;100.00;76672.66;5101631;22;20322;-66
2022/10/25 00:47:20;;;;;;;;;;;;;;;-142.75;100.00;76666.75;5068689;28;19966;-66
2022/10/25 00:49:48;;;;;;;;;;;;;;;-142.75;100.00;76672.66;5070619;28;19960;-65
2022/10/25 00:52:14;;;;;;;;;;;;;;;-142.75;100.00;76688.41;5075143;28;19920;-66
2022/10/25 00:54:41;;;;;;;;;;;;;;;-142.75;100.00;76682.50;5090765;28;20282;-65
2022/10/25 00:57:13;;;;;;;;;;;;;;;-142.75;100.00;76682.50;5090903;28;19916;-65
2022/10/25 00:59:38;;;;;;;;;;;;;;;-142.75;100.00;76684.47;5089392;28;19917;-67
2022/10/25 01:02:04;;;;;;;;;;;;;;;-142.75;100.00;76688.41;5089365;28;19971;-66
2022/10/25 01:04:32;;;;;;;;;;;;;;;-142.75;100.00;76688.41;5090383;28;19916;-66
2022/10/25 01:06:58;;;;;;;;;;;;;;;-142.75;100.00;76684.47;5090688;28;20344;-66
2022/10/25 01:09:25;;;;;;;;;;;;;;;-142.75;100.00;76684.47;5090937;28;19927;-65
2022/10/25 01:11:50;;;;;;;;;;;;;;;-142.75;100.00;76672.66;5091085;28;19923;-65
2022/10/25 01:14:16;;;;;;;;;;;;;;;-142.75;100.00;76682.50;5090904;28;19916;-65
2022/10/25 01:16:51;;;;;;;;;;;;;;;-142.75;100.00;76682.50;5090681;28;19938;-66
2022/10/25 01:19:22;;;;;;;;;;;;;;;-142.75;100.00;76684.47;5090715;28;19968;-65
2022/10/25 01:21:52;;;;;;;;;;;;;;;-142.75;100.00;76682.50;5090819;28;19963;-65
2022/10/25 01:24:36;;;;;;;;;;;;;;;-142.75;100.00;76672.66;5091718;28;19938;-66
2022/10/25 01:27:07;;;;;;;;;;;;;;;-142.75;100.00;76672.66;5090353;28;19959;-65
2022/10/25 01:29:51;;;;;;;;;;;;;;;-142.75;100.00;76672.66;5090678;28;20352;-65
2022/10/25 01:32:35;;;;;;;;;;;;;;;-142.75;100.00;76672.66;5090445;28;19916;-65
2022/10/25 01:35:06;;;;;;;;;;;;;;;-142.75;100.00;76676.59;5090302;28;19923;-65
2022/10/25 01:37:31;;;;;;;;;;;;;;;-142.75;100.00;76678.56;5090173;28;19916;-65
2022/10/25 01:40:00;;;;;;;;;;;;;;;-142.75;100.00;76678.56;5090518;28;20579;-65
2022/10/25 01:42:37;;;;;;;;;;;;;;;-142.75;100.00;76672.66;5090362;28;20478;-65
2022/10/25 01:45:02;;;;;;;;;;;;;;;-142.75;100.00;76688.41;5090419;28;19954;-67
2022/10/25 01:47:44;;;;;;;;;;;;;;;-142.75;100.00;76692.34;5090088;28;19971;-65
2022/10/25 01:50:20;;;;;;;;;;;;;;;-142.75;100.00;76708.09;5090287;28;19942;-65
2022/10/25 01:52:46;;;;;;;;;;;;;;;-142.75;100.00;76696.28;5090775;28;19935;-65
2022/10/25 01:55:12;;;;;;;;;;;;;;;-142.75;100.00;76698.25;5090651;28;19916;-65
2022/10/25 01:57:55;;;;;;;;;;;;;;;-142.75;100.00;76700.22;5089842;28;19919;-66
2022/10/25 02:00:22;;;;;;;;;;;;;;;-142.75;100.00;76706.13;5090067;28;19916;-65
2022/10/25 02:02:53;;;;;;;;;;;;;;;-142.75;100.00;76704.16;5090049;28;19996;-66
2022/10/25 02:05:33;;;;;;;;;;;;;;;-142.75;100.00;76717.94;5089520;28;19927;-65
2022/10/25 02:08:01;;;;;;;;;;;;;;;-142.75;100.00;76719.91;5089647;28;19985;-65
2022/10/25 02:11:02;;;;;;;;;;;;;;;-142.75;100.00;76727.78;5089788;28;19920;-65
2022/10/25 02:13:32;;;;;;;;;;;;;;;-142.75;100.00;76723.84;4987833;28;19941;-65
2022/10/25 02:16:00;;;;;;;;;;;;;;;-142.75;100.00;76714.00;5071821;28;19916;-65
2022/10/25 02:18:28;;;;;;;;;;;;;;;-142.75;100.00;76727.78;5089256;28;19962;-65
2022/10/25 02:20:54;;;;;;;;;;;;;;;-142.75;100.00;76719.91;5089762;28;20360;-65
2022/10/25 02:23:20;;;;;;;;;;;;;;;-142.75;100.00;76719.91;5090630;28;19916;-65
2022/10/25 02:25:47;;;;;;;;;;;;;;;-142.75;100.00;76721.88;5089517;28;19951;-65
2022/10/25 02:28:13;;;;;;;;;;;;;;;-142.75;100.00;76719.91;5089274;28;20369;-65
2022/10/25 02:30:41;;;;;;;;;;;;;;;-142.75;100.00;76731.72;5089583;28;19928;-65
2022/10/25 02:33:06;;;;;;;;;;;;;;;-142.75;100.00;76723.84;5089383;28;19924;-65
2022/10/25 02:35:31;;;;;;;;;;;;;;;-142.75;100.00;76714.00;5089388;28;20366;-65
2022/10/25 02:37:56;;;;;;;;;;;;;;;-142.75;100.00;76714.00;5089142;28;19938;-65
2022/10/25 02:40:22;;;;;;;;;;;;;;;-142.75;100.00;76719.91;5089665;28;19916;-65
2022/10/25 02:42:47;;;;;;;;;;;;;;;-142.75;100.00;76719.91;5089073;28;19916;-65
2022/10/25 02:45:12;;;;;;;;;;;;;;;-142.75;100.00;76723.84;5089054;28;19926;-65
2022/10/25 02:47:38;;;;;;;;;;;;;;;-142.75;100.00;76723.84;5089131;28;19916;-65
2022/10/25 02:50:03;;;;;;;;;;;;;;;-142.75;100.00;76733.69;5088999;28;19925;-65
2022/10/25 02:52:28;;;;;;;;;;;;;;;-142.75;100.00;76731.72;5089500;28;19916;-66
2022/10/25 02:54:53;;;;;;;;;;;;;;;-142.75;100.00;76731.72;5089984;28;19916;-65
2022/10/25 02:57:19;;;;;;;;;;;;;;;-142.75;100.00;76735.66;5088932;28;20301;-66
2022/10/25 02:59:44;;;;;;;;;;;;;;;-142.75;100.00;76749.44;5089241;28;19928;-65
2022/10/25 03:02:09;;;;;;;;;;;;;;;-142.75;100.00;76759.28;5088942;28;19916;-65
2022/10/25 03:04:34;;;;;;;;;;;;;;;-142.75;100.00;76755.34;5073539;28;20023;-65
2022/10/25 03:06:59;;;;;;;;;;;;;;;-142.75;100.00;76759.28;5088839;28;19916;-65
2022/10/25 03:09:24;;;;;;;;;;;;;;;-142.75;100.00;76759.28;5089118;28;19928;-65
2022/10/25 03:11:50;;;;;;;;;;;;;;;-142.75;100.00;76771.09;5089058;28;19969;-65
2022/10/25 03:14:15;;;;;;;;;;;;;;;-142.75;100.00;76767.16;5089013;28;19916;-66
2022/10/25 03:16:40;;;;;;;;;;;;;;;-142.75;100.00;76777.00;5088779;28;20313;-66
2022/10/25 03:19:05;;;;;;;;;;;;;;;-142.75;100.00;76775.03;5092488;28;19928;-66
2022/10/25 03:21:31;;;;;;;;;;;;;;;-142.75;100.00;76788.81;5074983;28;19951;-66
2022/10/25 03:23:56;;;;;;;;;;;;;;;-142.75;100.00;76780.94;5079524;28;19969;-65
2022/10/25 03:26:21;;;;;;;;;;;;;;;-142.75;100.00;76788.81;5072897;28;19916;-66
2022/10/25 03:28:46;;;;;;;;;;;;;;;-142.75;100.00;76792.75;5072538;28;19923;-65
2022/10/25 03:31:13;;;;;;;;;;;;;;;-142.75;100.00;76790.78;5072844;28;19931;-66
2022/10/25 03:33:38;;;;;;;;;;;;;;;-142.75;100.00;76786.84;5072816;28;19916;-66
2022/10/25 03:36:04;;;;;;;;;;;;;;;-142.75;100.00;76782.91;5054755;28;19916;-65
2022/10/25 03:38:29;;;;;;;;;;;;;;;-142.75;100.00;76788.81;5072513;28;20011;-65
2022/10/25 03:40:54;;;;;;;;;;;;;;;-142.75;100.00;76794.69;5072558;28;19917;-66
2022/10/25 03:43:19;;;;;;;;;;;;;;;-142.75;100.00;76804.53;5072542;28;19924;-66
2022/10/25 03:45:45;;;;;;;;;;;;;;;-142.75;100.00;76800.63;5072296;28;20334;-65
2022/10/25 03:48:10;;;;;;;;;;;;;;;-142.75;100.00;76806.50;5072271;28;19923;-65
2022/10/25 03:50:35;;;;;;;;;;;;;;;-142.75;100.00;76814.38;5054546;28;20275;-66
2022/10/25 03:53:00;;;;;;;;;;;;;;;-142.75;100.00;76812.41;5072648;28;19916;-65
2022/10/25 03:55:26;;;;;;;;;;;;;;;-142.75;100.00;76804.53;5067439;28;19925;-66
2022/10/25 03:57:51;;;;;;;;;;;;;;;-142.75;100.00;76820.28;5068940;28;20382;-65
2022/10/25 04:00:16;;;;;;;;;;;;;;;-142.75;100.00;76818.31;5071313;28;19922;-65
2022/10/25 04:02:41;;;;;;;;;;;;;;;-142.75;100.00;76824.22;5071407;28;19920;-65
2022/10/25 04:05:07;;;;;;;;;;;;;;;-142.75;100.00;76814.38;5053332;28;19963;-65
2022/10/25 04:07:32;;;;;;;;;;;;;;;-142.75;100.00;76806.50;5071050;28;20427;-65
2022/10/25 04:09:57;;;;;;;;;;;;;;;-142.75;100.00;76798.66;5052921;28;19921;-65
2022/10/25 04:12:22;;;;;;;;;;;;;;;-142.75;100.00;76796.69;5071386;28;19921;-65
2022/10/25 04:14:47;;;;;;;;;;;;;;;-142.75;100.00;76794.69;5071282;28;20366;-65
2022/10/25 04:17:13;;;;;;;;;;;;;;;-142.75;100.00;76794.69;5070761;28;20358;-65
2022/10/25 04:19:38;;;;;;;;;;;;;;;-142.75;100.00;76788.81;5071773;28;20397;-65
2022/10/25 04:22:03;;;;;;;;;;;;;;;-142.75;100.00;76798.66;5072512;28;19920;-66
2022/10/25 04:24:29;;;;;;;;;;;;;;;-142.75;100.00;76800.63;5073839;28;19916;-65
2022/10/25 04:26:54;;;;;;;;;;;;;;;-142.75;100.00;76806.50;5073396;28;20558;-65
2022/10/25 04:29:19;;;;;;;;;;;;;;;-142.75;100.00;76806.50;5073344;28;19924;-67
2022/10/25 04:31:44;;;;;;;;;;;;;;;-142.75;100.00;76808.50;5055649;28;19916;-66
2022/10/25 04:34:09;;;;;;;;;;;;;;;-142.75;100.00;76804.53;5073527;28;19917;-65
2022/10/25 04:36:35;;;;;;;;;;;;;;;-142.75;100.00;76812.41;5055321;28;19959;-65
2022/10/25 04:39:00;;;;;;;;;;;;;;;-142.75;100.00;76822.25;5055447;28;19971;-65
2022/10/25 04:41:25;;;;;;;;;;;;;;;-142.75;100.00;76839.97;5073774;28;20293;-65
2022/10/25 04:43:51;;;;;;;;;;;;;;;-142.75;100.00;76836.03;5073537;28;19916;-67
2022/10/25 04:46:16;;;;;;;;;;;;;;;-142.75;100.00;76834.06;5073383;28;20458;-65
2022/10/25 04:48:41;;;;;;;;;;;;;;;-142.75;100.00;76834.06;5072967;28;19916;-65
2022/10/25 04:51:07;;;;;;;;;;;;;;;-142.75;100.00;76836.03;5073343;28;19916;-66
2022/10/25 04:53:32;;;;;;;;;;;;;;;-142.75;100.00;76853.75;5073161;28;19920;-64
2022/10/25 04:55:58;;;;;;;;;;;;;;;-142.75;100.00;76857.69;5073055;28;19917;-65
2022/10/25 04:58:24;;;;;;;;;;;;;;;-142.75;100.00;76857.69;5072748;28;19924;-66
2022/10/25 05:00:49;;;;;;;;;;;;;;;-142.75;100.00;76853.75;5073114;28;19922;-65
2022/10/25 05:03:15;;;;;;;;;;;;;;;-142.75;100.00;76849.81;5073117;28;19916;-65
2022/10/25 05:05:40;;;;;;;;;;;;;;;-142.75;100.00;76857.69;5072871;28;20397;-65
2022/10/25 05:08:05;;;;;;;;;;;;;;;-142.75;100.00;76849.81;5072642;28;19916;-65
2022/10/25 05:10:30;;;;;;;;;;;;;;;-142.75;100.00;76838.00;5069432;28;19925;-66
2022/10/25 05:12:55;;;;;;;;;;;;;;;-142.75;100.00;76838.00;5078897;28;20373;-65
2022/10/25 05:15:21;;;;;;;;;;;;;;;-142.75;100.00;76838.00;5077563;28;19925;-65
2022/10/25 05:17:46;;;;;;;;;;;;;;;-142.75;100.00;76845.88;5085151;28;19920;-65
2022/10/25 05:20:11;;;;;;;;;;;;;;;-142.75;100.00;76863.59;5092344;28;20298;-65
2022/10/25 05:22:36;;;;;;;;;;;;;;;-142.75;100.00;76857.69;5092787;28;19916;-65
2022/10/25 05:25:02;;;;;;;;;;;;;;;-142.75;100.00;76851.78;5074578;28;19916;-65
2022/10/25 05:27:27;;;;;;;;;;;;;;;-142.75;100.00;76861.63;5092278;28;19923;-65
2022/10/25 05:29:52;;;;;;;;;;;;;;;-142.75;100.00;76855.72;5092720;28;20632;-65
2022/10/25 05:32:17;;;;;;;;;;;;;;;-142.75;100.00;76873.44;5092689;28;19925;-65
2022/10/25 05:34:42;;;;;;;;;;;;;;;-142.75;100.00;76869.50;5092671;28;19927;-65
2022/10/25 05:37:07;;;;;;;;;;;;;;;-142.75;100.00;76873.44;5092331;28;19951;-65
2022/10/25 05:39:33;;;;;;;;;;;;;;;-142.75;100.00;76869.50;5092351;28;19916;-65
2022/10/25 05:41:59;;;;;;;;;;;;;;;-142.75;100.00;76871.47;5093110;28;20002;-66
2022/10/25 05:44:24;;;;;;;;;;;;;;;-142.75;100.00;76877.38;5092309;28;19924;-66
2022/10/25 05:46:50;;;;;;;;;;;;;;;-142.75;100.00;76863.59;5092125;28;19915;-66
2022/10/25 05:49:15;;;;;;;;;;;;;;;-142.75;100.00;76881.31;5092393;28;19927;-66
2022/10/25 05:51:41;;;;;;;;;;;;;;;-142.75;100.00;76893.13;5092258;28;19916;-65
2022/10/25 05:54:08;;;;;;;;;;;;;;;-142.75;100.00;76899.03;5092214;28;19922;-65
2022/10/25 05:56:34;;;;;;;;;;;;;;;-142.75;100.00;76889.19;5091930;28;19920;-65
2022/10/25 05:59:07;;;;;;;;;;;;;;;-142.75;100.00;76901.00;5092157;28;19916;-65
2022/10/25 06:01:32;;;;;;;;;;;;;;;-142.75;100.00;76893.13;5086715;28;19924;-65
2022/10/25 06:03:57;;;;;;;;;;;;;;;-142.75;100.00;76885.25;5092067;28;20400;-65
2022/10/25 06:06:22;;;;;;;;;;;;;;;-142.75;100.00;76881.31;5091913;28;19920;-65
2022/10/25 06:08:48;;;;;;;;;;;;;;;-142.75;100.00;76885.25;5091690;28;20011;-65
2022/10/25 06:11:14;;;;;;;;;;;;;;;-142.75;100.00;76904.94;5091892;28;20489;-65
2022/10/25 06:13:40;;;;;;;;;;;;;;;-142.75;100.00;76897.06;5091830;28;19923;-65
2022/10/25 06:16:06;;;;;;;;;;;;;;;-142.75;100.00;76904.94;5091767;28;20358;-66
2022/10/25 06:18:32;;;;;;;;;;;;;;;-142.75;100.00;76908.88;5091478;28;20378;-65
2022/10/25 06:21:01;;;;;;;;;;;;;;;-142.75;100.00;76901.00;5091681;28;19923;-65
2022/10/25 06:23:27;;;;;;;;;;;;;;;-142.75;100.00;76901.00;5091803;28;19916;-65
2022/10/25 06:25:57;;;;;;;;;;;;;;;-142.75;100.00;76904.94;5091540;28;20111;-65
2022/10/25 06:28:22;;;;;;;;;;;;;;;-142.75;100.00;76901.00;5091389;28;19962;-65
2022/10/25 06:30:47;;;;;;;;;;;;;;;-142.75;100.00;76904.94;5091499;28;19967;-65
2022/10/25 06:33:12;;;;;;;;;;;;;;;-142.75;100.00;76916.75;5091544;28;19924;-65
2022/10/25 06:35:37;;;;;;;;;;;;;;;-142.75;100.00;76916.75;5091411;28;19950;-67
2022/10/25 06:38:03;;;;;;;;;;;;;;;-142.75;100.00;76912.81;5091239;28;19916;-65
2022/10/25 06:40:28;;;;;;;;;;;;;;;-142.75;100.00;76928.56;5091440;28;20368;-65
2022/10/25 06:42:56;;;;;;;;;;;;;;;-142.75;100.00;76926.59;5091440;28;19916;-65
2022/10/25 06:45:22;;;;;;;;;;;;;;;-142.75;100.00;76930.53;5104615;22;19939;-67
2022/10/25 06:47:47;;;;;;;;;;;;;;;-142.75;100.00;76944.31;5087847;28;19920;-67
2022/10/25 06:50:12;;;;;;;;;;;;;;;-142.75;100.00;76942.34;5089395;28;19920;-67
2022/10/25 06:52:38;;;;;;;;;;;;;;;-142.75;100.00;76932.50;5091330;28;19916;-67
2022/10/25 06:55:03;;;;;;;;;;;;;;;-142.75;100.00;76934.47;5085324;28;20297;-64
2022/10/25 06:57:28;;;;;;;;;;;;;;;-142.75;100.00;76940.38;5070652;28;19923;-63
2022/10/25 06:59:53;;;;;;;;;;;;;;;-142.75;100.00;76960.06;5076271;28;19920;-68
2022/10/25 07:02:19;;;;;;;;;;;;;;;-142.75;100.00;76962.03;5082266;28;19997;-67
2022/10/25 07:04:44;;;;;;;;;;;;;;;-142.75;100.00;76958.09;5067894;28;19917;-68
2022/10/25 07:07:09;;;;;;;;;;;;;;;-142.75;100.00;76958.09;5075864;28;19923;-67
2022/10/25 07:09:34;;;;;;;;;;;;;;;-142.75;100.00;76944.31;5091011;28;19928;-67
2022/10/25 07:11:59;;;;;;;;;;;;;;;-142.75;100.00;76942.34;5071339;28;20334;-67
2022/10/25 07:14:25;;;;;;;;;;;;;;;-142.75;100.00;76928.56;5065220;28;21226;-67
2022/10/25 07:16:50;;;;;;;;;;;;;;;-142.75;100.00;76901.00;5073927;28;19916;-66
2022/10/25 07:19:15;;;;;;;;;;;;;;;-142.75;100.00;76885.25;5079362;28;20369;-66
2022/10/25 07:21:40;;;;;;;;;;;;;;;-142.75;100.00;76904.94;5074067;28;19916;-67
2022/10/25 07:24:09;;;;;;;;;;;;;;;-142.75;100.00;76889.19;5077239;28;19917;-67
2022/10/25 07:26:34;;;;;;;;;;;;;;;-142.75;100.00;76887.22;5071467;28;20442;-65
2022/10/25 07:29:00;;;;;;;;;;;;;;;-142.75;100.00;76893.13;5081139;28;19920;-68
2022/10/25 07:31:29;;;;;;;;;;;;;;;-142.75;100.00;76895.09;5076882;28;19966;-67
2022/10/25 07:33:56;;;;;;;;;;;;;;;-142.75;100.00;76912.81;5079141;28;20393;-67
2022/10/25 07:36:21;;;;;;;;;;;;;;;-142.75;100.00;76912.81;5074778;28;19962;-67
2022/10/25 07:38:47;;;;;;;;;;;;;;;-142.75;100.00;76924.63;5078856;28;19951;-67
2022/10/25 07:41:12;;;;;;;;;;;;;;;-142.75;100.00;76932.50;5066156;28;19917;-65
2022/10/25 07:43:37;;;;;;;;;;;;;;;-142.75;100.00;76926.59;5056543;28;19925;-66
2022/10/25 07:46:03;;;;;;;;;;;;;;;-142.75;100.00;76932.50;5057860;28;20038;-66
2022/10/25 07:48:28;;;;;;;;;;;;;;;-142.75;100.00;76936.44;5056190;28;19923;-65
2022/10/25 07:50:53;;;;;;;;;;;;;;;-142.75;100.00;76940.38;5059713;28;19930;-66
2022/10/25 07:53:19;;;;;;;;;;;;;;;-142.75;100.00;76952.19;5065145;28;19923;-65
2022/10/25 07:55:51;;;;;;;;;;;;;;;-142.75;100.00;76952.19;5064624;28;19920;-66
2022/10/25 07:58:16;;;;;;;;;;;;;;;-142.75;100.00;76960.06;5062895;28;19917;-67
2022/10/25 08:00:41;;;;;;;;;;;;;;;-142.75;100.00;76950.22;5073786;28;20428;-66
2022/10/25 08:03:06;;;;;;;;;;;;;;;-142.75;100.00;76958.09;5078149;28;19951;-67
2022/10/25 08:05:31;;;;;;;;;;;;;;;-142.75;100.00;76962.03;5080042;28;19939;-67
2022/10/25 08:07:57;;;;;;;;;;;;;;;-142.75;100.00;76956.13;5076085;28;19916;-67
2022/10/25 08:10:22;;;;;;;;;;;;;;;-142.75;100.00;76950.22;5079913;28;19924;-66
2022/10/25 08:12:48;;;;;;;;;;;;;;;-142.75;100.00;76942.34;5082367;28;19922;-68
2022/10/25 08:15:13;;;;;;;;;;;;;;;-142.75;100.00;76952.19;5081489;28;19985;-68
2022/10/25 08:17:38;;;;;;;;;;;;;;;-142.75;100.00;76954.16;5080366;28;20258;-67
2022/10/25 08:20:04;;;;;;;;;;;;;;;-142.75;100.00;76956.13;5073338;28;19974;-67
2022/10/25 08:22:29;;;;;;;;;;;;;;;-142.75;100.00;76956.13;5065331;28;19988;-69
2022/10/25 08:24:54;;;;;;;;;;;;;;;-142.75;100.00;76956.13;5066894;28;20060;-68
2022/10/25 08:27:20;;;;;;;;;;;;;;;-142.75;100.00;76956.13;5070500;28;20344;-69
2022/10/25 08:29:45;;;;;;;;;;;;;;;-142.75;100.00;76958.09;5066960;28;19976;-67
2022/10/25 08:32:10;;;;;;;;;;;;;;;-142.75;100.00;76956.13;5077979;28;19924;-70
2022/10/25 08:34:35;;;;;;;;;;;;;;;-142.75;100.00;76952.19;5075191;28;19925;-67
2022/10/25 08:37:00;;;;;;;;;;;;;;;-142.75;100.00;76936.44;5084215;28;19939;-68
2022/10/25 08:39:25;;;;;;;;;;;;;;;-142.75;100.00;76936.44;5073186;28;19982;-67
2022/10/25 08:41:58;;;;;;;;;;;;;;;-142.75;100.00;76928.56;5078132;28;20011;-71
2022/10/25 08:44:26;;;;;;;;;;;;;;;-142.75;100.00;76932.50;5088884;28;19916;-68
2022/10/25 08:46:58;;;;;;;;;;;;;;;-142.75;100.00;76948.25;5093026;28;19923;-69
2022/10/25 08:49:53;;;;;;;;;;;;;;;-142.75;100.00;76930.53;5092056;28;20003;-70
2022/10/25 08:52:26;;;;;;;;;;;;;;;-142.75;100.00;76930.53;5080093;28;19916;-68
2022/10/25 08:54:52;;;;;;;;;;;;;;;-142.75;100.00;76918.72;5093372;28;19922;-69
2022/10/25 08:57:17;;;;;;;;;;;;;;;-142.75;100.00;76930.53;5091780;28;20390;-68
2022/10/25 08:59:46;;;;;;;;;;;;;;;-142.75;100.00;76883.28;5093382;28;19978;-68
2022/10/25 09:02:30;;;;;;;;;;;;;;;-142.75;100.00;76826.19;5093170;28;19942;-68
2022/10/25 09:04:55;;;;;;;;;;;;;;;-142.75;100.00;76810.44;5093213;28;20001;-69
2022/10/25 09:07:39;;;;;;;;;;;;;;;-142.75;100.00;76808.50;5070122;28;19925;-68
2022/10/25 09:10:17;;;;;;;;;;;;;;;-142.75;100.00;76818.31;5072923;28;19924;-69
2022/10/25 09:12:45;;;;;;;;;;;;;;;-142.75;100.00;76851.78;5071539;28;19916;-68
2022/10/25 09:15:18;;;;;;;;;;;;;;;-142.75;100.00;76836.03;5071837;28;20552;-68
2022/10/25 09:17:51;;;;;;;;;;;;;;;-142.75;100.00;76838.00;5072485;28;19916;-68
2022/10/25 09:20:16;;;;;;;;;;;;;;;-142.75;100.00;76836.03;5072825;28;19931;-68
2022/10/25 09:22:41;;;;;;;;;;;;;;;-142.75;100.00;76865.56;5071742;28;19920;-67
2022/10/25 09:25:27;;;;;;;;;;;;;;;-142.75;100.00;76855.72;5071258;28;19920;-68
2022/10/25 09:27:58;;;;;;;;;;;;;;;-142.75;100.00;76808.50;5071226;28;19917;-65
2022/10/25 09:30:23;;;;;;;;;;;;;;;-142.75;100.00;76800.63;5072650;28;19943;-68
2022/10/25 09:32:51;;;;;;;;;;;;;;;-142.75;100.00;76794.69;5072457;28;20378;-69
2022/10/25 09:35:19;;;;;;;;;;;;;;;-142.75;100.00;76765.19;5072367;28;19917;-69
2022/10/25 09:37:47;;;;;;;;;;;;;;;-142.75;100.00;76739.59;5071178;28;20368;-70
2022/10/25 09:40:21;;;;;;;;;;;;;;;-142.75;100.00;76727.78;5072342;28;19917;-69
2022/10/25 09:42:57;;;;;;;;;;;;;;;-142.75;100.00;76708.09;5071075;28;19972;-69
2022/10/25 09:45:32;;;;;;;;;;;;;;;-142.75;100.00;76692.34;5072184;28;19916;-67
2022/10/25 09:48:00;;;;;;;;;;;;;;;-142.75;100.00;76692.34;5071794;28;20007;-69
2022/10/25 09:50:39;;;;;;;;;;;;;;;-142.75;100.00;76692.34;5070870;28;19960;-69
2022/10/25 09:53:12;;;;;;;;;;;;;;;-142.75;100.00;76692.34;5071000;28;20290;-68
2022/10/25 09:55:48;;;;;;;;;;;;;;;-142.75;100.00;76686.44;5072025;28;19939;-68
2022/10/25 09:58:24;;;;;;;;;;;;;;;-142.75;100.00;76696.28;5072358;28;19916;-69
2022/10/25 10:00:50;;;;;;;;;;;;;;;-142.75;100.00;76680.53;5090860;28;19923;-69
2022/10/25 10:03:16;;;;;;;;;;;;;;;-142.75;100.00;76654.94;5092238;28;19916;-69
2022/10/25 10:05:45;;;;;;;;;;;;;;;-142.75;100.00;76649.03;5092107;28;19923;-68
2022/10/25 10:08:10;;;;;;;;;;;;;;;-142.75;100.00;76613.59;5091770;28;20401;-68
2022/10/25 10:10:36;;;;;;;;;;;;;;;-142.75;100.00;76629.34;5091871;28;19967;-68
2022/10/25 10:13:10;;;;;;;;;;;;;;;-142.75;100.00;76639.19;5091937;28;20311;-69
2022/10/25 10:15:41;;;;;;;;;;;;;;;-142.75;100.00;76617.53;5091830;28;19916;-69
2022/10/25 10:18:18;;;;;;;;;;;;;;;-142.75;100.00;76586.03;5091657;28;19916;-69
2022/10/25 10:21:01;;;;;;;;;;;;;;;-142.75;100.00;76542.72;5078729;28;20003;-68
2022/10/25 10:23:28;;;;;;;;;;;;;;;-142.75;100.00;76475.81;5071496;28;19921;-68
2022/10/25 10:25:54;;;;;;;;;;;;;;;-142.75;100.00;76465.97;5071253;28;20309;-69
2022/10/25 10:28:19;;;;;;;;;;;;;;;-142.75;100.00;76438.41;5066962;28;19924;-68
2022/10/25 10:30:51;;;;;;;;;;;;;;;-142.75;100.00;76440.38;5066536;28;19966;-69
2022/10/25 10:33:16;;;;;;;;;;;;;;;-142.75;100.00;76401.00;5071216;28;20001;-70
2022/10/25 10:35:41;;;;;;;;;;;;;;;-142.75;100.00;76379.34;5069807;28;19959;-67
2022/10/25 10:38:15;;;;;;;;;;;;;;;-142.75;100.00;76334.09;5070949;28;19931;-69
2022/10/25 10:40:41;;;;;;;;;;;;;;;-142.75;100.00;76310.47;5071145;28;19917;-70
2022/10/25 10:43:25;;;;;;;;;;;;;;;-142.75;100.00;76399.03;5071451;28;20382;-69
2022/10/25 10:45:50;;;;;;;;;;;;;;;-142.75;100.00;76353.78;5071068;28;19916;-68
2022/10/25 10:48:21;;;;;;;;;;;;;;;-142.75;100.00;76306.53;5072931;28;20548;-65
2022/10/25 10:50:47;;;;;;;;;;;;;;;-142.75;100.00;76314.41;5071931;28;19921;-68
2022/10/25 10:53:28;;;;;;;;;;;;;;;-142.75;100.00;76369.50;5069426;28;19916;-69
2022/10/25 10:55:54;;;;;;;;;;;;;;;-142.75;100.00;76332.13;5069030;28;19958;-68
2022/10/25 10:58:41;;;;;;;;;;;;;;;-142.75;100.00;76324.25;5075908;28;19916;-69
2022/10/25 11:01:11;;;;;;;;;;;;;;;-142.75;100.00;76355.72;5091311;28;19960;-69
2022/10/25 11:03:39;;;;;;;;;;;;;;;-142.75;100.00;76326.22;5090026;28;19916;-69
2022/10/25 11:06:09;;;;;;;;;;;;;;;-142.75;100.00;76340.00;5075339;28;19972;-67
2022/10/25 11:08:34;;;;;;;;;;;;;;;-142.75;100.00;76353.78;5070458;28;19928;-69
2022/10/25 11:11:18;;;;;;;;;;;;;;;-142.75;100.00;76432.50;5070334;28;20348;-68
2022/10/25 11:13:54;;;;;;;;;;;;;;;-142.75;100.00;76367.53;5078874;28;19924;-69
2022/10/25 11:16:34;;;;;;;;;;;;;;;-142.75;100.00;76306.53;5075883;28;19917;-69
2022/10/25 11:19:18;;;;;;;;;;;;;;;-142.75;100.00;76320.31;5076333;28;19916;-69
2022/10/25 11:21:57;;;;;;;;;;;;;;;-142.75;100.00;76298.66;5069829;28;20348;-69
2022/10/25 11:24:25;;;;;;;;;;;;;;;-142.75;100.00;76357.69;5070952;28;19916;-68
2022/10/25 11:26:54;;;;;;;;;;;;;;;-142.75;100.00;76273.06;5070007;28;19970;-65
2022/10/25 11:29:36;;;;;;;;;;;;;;;-142.75;100.00;76306.53;5071794;28;19928;-66
2022/10/25 11:32:09;;;;;;;;;;;;;;;-142.75;100.00;76383.28;5069457;28;21250;-68
2022/10/25 11:34:44;;;;;;;;;;;;;;;-142.75;100.00;76363.59;5068815;28;19975;-68
2022/10/25 11:37:18;;;;;;;;;;;;;;;-142.75;100.00;76432.50;5071946;28;20005;-68
2022/10/25 11:39:45;;;;;;;;;;;;;;;-142.75;100.00;76450.22;5073704;28;19917;-68
2022/10/25 11:42:11;;;;;;;;;;;;;;;-142.75;100.00;76469.91;5081122;28;19962;-67
2022/10/25 11:44:36;;;;;;;;;;;;;;;-142.75;100.00;76422.66;5089918;28;20079;-68
2022/10/25 11:47:10;;;;;;;;;;;;;;;-142.75;100.00;76401.00;5094311;28;19922;-67
2022/10/25 11:49:41;;;;;;;;;;;;;;;-142.75;100.00;76416.75;5089676;28;19920;-68
2022/10/25 11:52:15;;;;;;;;;;;;;;;-142.75;100.00;76416.75;5074238;28;19920;-68
2022/10/25 11:54:41;;;;;;;;;;;;;;;-142.75;100.00;76389.19;5073172;28;19916;-69
2022/10/25 11:57:13;;;;;;;;;;;;;;;-142.75;100.00;76316.38;5074286;28;19922;-68
2022/10/25 11:59:55;;;;;;;;;;;;;;;-142.75;100.00;76271.09;5080799;28;19916;-69
2022/10/25 12:02:32;;;;;;;;;;;;;;;-142.75;100.00;76241.56;5075162;28;19962;-67
2022/10/25 12:05:15;;;;;;;;;;;;;;;-142.75;100.00;76294.72;5072617;28;19916;-68
2022/10/25 12:07:47;;;;;;;;;;;;;;;-142.75;100.00;76296.69;5073834;28;19920;-68
2022/10/25 12:10:15;;;;;;;;;;;;;;;-142.75;100.00;76257.31;5073994;28;19952;-68
2022/10/25 12:12:43;;;;;;;;;;;;;;;-142.75;100.00;76170.72;5073992;28;19925;-69
2022/10/25 12:15:15;;;;;;;;;;;;;;;-142.75;100.00;76204.16;5073956;28;20297;-68
2022/10/25 12:17:41;;;;;;;;;;;;;;;-142.75;100.00;76221.88;5072512;28;19916;-67
2022/10/25 12:20:14;;;;;;;;;;;;;;;-142.75;100.00;76219.91;5073619;28;20408;-69
2022/10/25 12:22:42;;;;;;;;;;;;;;;-142.75;100.00;76184.50;5073928;28;19959;-69